createdAt,value
2019-05-22T00:02:19.238Z,100819.67
2019-05-22T00:04:52.473Z,100825.14
2019-05-22T00:07:22.617Z,100825.57
2019-05-22T00:09:52.975Z,100820.40
2019-05-22T00:12:21.407Z,100829.14
2019-05-22T00:14:50.728Z,100825.57
2019-05-22T00:17:22.084Z,100820.40
2019-05-22T00:19:51.274Z,100828.00
2019-05-22T00:22:27.240Z,100824.09
2019-05-22T00:24:57.361Z,100832.11
2019-05-22T00:27:27.497Z,100820.64
2019-05-22T00:29:57.560Z,100832.02
2019-05-22T00:32:26.170Z,100837.20
2019-05-22T00:34:56.015Z,100836.89
2019-05-22T00:37:25.908Z,100839.83
2019-05-22T00:39:55.347Z,100851.20
2019-05-22T00:42:25.315Z,100839.84
2019-05-22T00:44:54.464Z,100846.80
2019-05-22T00:47:25.044Z,100846.72
2019-05-22T00:49:55.359Z,100846.58
2019-05-22T00:52:28.675Z,100853.02
2019-05-22T00:55:15.052Z,100855.64
2019-05-22T00:57:45.083Z,100852.59
2019-05-22T01:00:20.430Z,100851.23
2019-05-22T01:02:50.419Z,100852.59
2019-05-22T01:05:20.661Z,100858.72
2019-05-22T01:07:50.814Z,100854.61
2019-05-22T01:10:19.212Z,100857.42
2019-05-22T01:12:49.956Z,100864.27
2019-05-22T01:15:21.549Z,100867.00
2019-05-22T01:17:54.658Z,100871.45
2019-05-22T01:20:26.074Z,100867.95
2019-05-22T01:22:59.276Z,100867.54
2019-05-22T01:25:29.030Z,100863.55
2019-05-22T01:27:58.276Z,100873.77
2019-05-22T01:30:28.491Z,100865.45
2019-05-22T01:32:58.921Z,100868.60
2019-05-22T01:35:31.147Z,100868.83
2019-05-22T01:37:59.895Z,100870.84
2019-05-22T01:40:37.344Z,100870.31
2019-05-22T01:43:09.401Z,100870.50
2019-05-22T01:45:39.419Z,100868.72
2019-05-22T01:48:17.455Z,100879.66
2019-05-22T01:50:49.210Z,100880.80
2019-05-22T01:53:22.211Z,100877.77
2019-05-22T01:55:52.619Z,100873.23
2019-05-22T01:58:21.886Z,100874.94
2019-05-22T02:00:52.727Z,100871.03
2019-05-22T02:03:23.276Z,100878.28
2019-05-22T02:05:52.579Z,100880.19
2019-05-22T02:08:23.095Z,100896.83
2019-05-22T02:10:52.006Z,100895.15
2019-05-22T02:13:33.811Z,100897.55
2019-05-22T02:16:02.538Z,100889.75
2019-05-22T02:18:33.971Z,100894.92
2019-05-22T02:21:04.144Z,100898.30
2019-05-22T02:23:34.002Z,100885.34
2019-05-22T02:26:05.236Z,100896.59
2019-05-22T02:28:36.526Z,100884.20
2019-05-22T02:31:07.122Z,100885.03
2019-05-22T02:33:38.124Z,100893.44
2019-05-22T02:36:07.833Z,100887.66
2019-05-22T02:38:37.626Z,100887.13
2019-05-22T02:41:08.363Z,100889.67
2019-05-22T02:43:37.308Z,100899.44
2019-05-22T02:46:07.383Z,100905.25
2019-05-22T02:48:37.067Z,100904.91
2019-05-22T02:51:05.773Z,100908.09
2019-05-22T02:53:34.183Z,100917.97
2019-05-22T02:56:04.057Z,100907.44
2019-05-22T02:58:34.108Z,100911.23
2019-05-22T03:01:04.845Z,100910.28
2019-05-22T03:03:34.002Z,100912.70
2019-05-22T03:06:04.106Z,100910.47
2019-05-22T03:08:58.441Z,100909.42
2019-05-22T03:11:34.398Z,100911.09
2019-05-22T03:14:01.834Z,100916.80
2019-05-22T03:16:48.068Z,100914.57
2019-05-22T03:19:20.829Z,100907.73
2019-05-22T03:21:49.269Z,100916.56
2019-05-22T03:24:17.753Z,100918.77
2019-05-22T03:26:50.913Z,100925.27
2019-05-22T03:29:22.514Z,100921.16
2019-05-22T03:31:50.947Z,100922.44
2019-05-22T03:34:20.630Z,100925.89
2019-05-22T03:36:49.210Z,100914.23
2019-05-22T03:39:18.223Z,100931.36
2019-05-22T03:41:47.403Z,100931.58
2019-05-22T03:44:17.459Z,100935.78
2019-05-22T03:46:46.462Z,100940.06
2019-05-22T03:49:29.612Z,100946.91
2019-05-22T03:51:52.302Z,100951.41
2019-05-22T03:54:21.940Z,100949.73
2019-05-22T03:56:50.641Z,100944.27
2019-05-22T03:59:19.729Z,100950.48
2019-05-22T04:01:48.166Z,100951.84
2019-05-22T04:04:20.284Z,100954.77
2019-05-22T04:06:48.767Z,100956.00
2019-05-22T04:09:20.457Z,100956.22
2019-05-22T04:11:49.902Z,100963.59
2019-05-22T04:14:19.577Z,100953.36
2019-05-22T04:16:49.050Z,100964.83
2019-05-22T04:19:17.535Z,100956.44
2019-05-22T04:21:46.816Z,100964.39
2019-05-22T04:24:15.666Z,100967.88
2019-05-22T04:26:44.106Z,100967.66
2019-05-22T04:29:12.767Z,100970.91
2019-05-22T04:31:52.454Z,100978.58
2019-05-22T04:34:20.967Z,100981.94
2019-05-22T04:36:50.994Z,100989.08
2019-05-22T04:39:24.211Z,100991.69
2019-05-22T04:41:53.996Z,101001.38
2019-05-22T04:44:22.889Z,101001.91
2019-05-22T04:46:51.456Z,101010.28
2019-05-22T04:49:20.141Z,101003.36
2019-05-22T04:51:49.116Z,101008.92
2019-05-22T04:54:17.530Z,100998.33
2019-05-22T04:56:46.005Z,101007.77
2019-05-22T04:59:14.453Z,101008.92
2019-05-22T05:01:43.072Z,101012.52
2019-05-22T05:04:11.946Z,101014.38
2019-05-22T05:06:40.527Z,101009.05
2019-05-22T05:09:10.586Z,101015.88
2019-05-22T05:11:39.910Z,101019.45
2019-05-22T05:14:08.413Z,101012.84
2019-05-22T05:16:37.099Z,101025.45
2019-05-22T05:19:05.601Z,101024.92
2019-05-22T05:21:34.020Z,101027.65
2019-05-22T05:24:02.599Z,101027.13
2019-05-22T05:26:31.685Z,101033.33
2019-05-22T05:29:00.193Z,101033.46
2019-05-22T05:31:28.979Z,101035.45
2019-05-22T05:34:11.069Z,101036.11
2019-05-22T05:36:41.374Z,101035.84
2019-05-22T05:39:30.076Z,101031.44
2019-05-22T05:41:58.485Z,101043.86
2019-05-22T05:44:27.000Z,101042.50
2019-05-22T05:46:55.482Z,101050.80
2019-05-22T05:49:24.464Z,101045.85
2019-05-22T05:51:53.111Z,101058.99
2019-05-22T05:54:23.433Z,101051.66
2019-05-22T05:56:52.418Z,101054.89
2019-05-22T05:59:22.139Z,101048.27
2019-05-22T06:01:52.194Z,101050.08
2019-05-22T06:04:34.108Z,101059.25
2019-05-22T06:07:00.722Z,101058.51
2019-05-22T06:09:29.775Z,101062.95
2019-05-22T06:11:59.601Z,101062.11
2019-05-22T06:14:33.230Z,101068.73
2019-05-22T06:17:08.800Z,101069.70
2019-05-22T06:19:41.188Z,101075.48
2019-05-22T06:22:10.539Z,101074.11
2019-05-22T06:24:56.331Z,101079.18
2019-05-22T06:27:35.664Z,101079.70
2019-05-22T06:30:07.547Z,101078.00
2019-05-22T06:32:57.710Z,101087.47
2019-05-22T06:35:29.913Z,101085.79
2019-05-22T06:38:01.569Z,101091.17
2019-05-22T06:40:30.847Z,101097.79
2019-05-22T06:43:20.893Z,101092.45
2019-05-22T06:45:49.464Z,101093.08
2019-05-22T06:48:17.879Z,101098.89
2019-05-22T06:50:49.267Z,101100.79
2019-05-22T06:53:16.595Z,101096.81
2019-05-22T06:55:45.037Z,101099.34
2019-05-22T06:58:13.960Z,101103.44
2019-05-22T07:00:42.572Z,101100.92
2019-05-22T07:03:13.714Z,101104.31
2019-05-22T07:05:42.968Z,101103.56
2019-05-22T07:08:12.110Z,101103.56
2019-05-22T07:10:41.642Z,101096.45
2019-05-22T07:13:10.633Z,101114.02
2019-05-22T07:15:40.788Z,101110.34
2019-05-22T07:18:12.912Z,101120.89
2019-05-22T07:20:42.179Z,101114.89
2019-05-22T07:23:12.601Z,101122.09
2019-05-22T07:25:41.822Z,101140.27
2019-05-22T07:28:10.593Z,101132.19
2019-05-22T07:30:39.474Z,101134.84
2019-05-22T07:33:08.280Z,101139.16
2019-05-22T07:35:56.354Z,101142.73
2019-05-22T07:38:07.269Z,101141.09
2019-05-22T07:40:37.606Z,101151.42
2019-05-22T07:43:06.144Z,101150.89
2019-05-22T07:45:35.159Z,101150.58
2019-05-22T07:48:04.909Z,101149.03
2019-05-22T07:50:34.279Z,101153.32
2019-05-22T07:53:02.793Z,101159.23
2019-05-22T07:55:33.142Z,101159.05
2019-05-22T07:58:13.232Z,101159.13
2019-05-22T08:00:45.558Z,101163.02
2019-05-22T08:03:14.366Z,101167.12
2019-05-22T08:05:45.970Z,101167.44
2019-05-22T08:08:18.690Z,101176.53
2019-05-22T08:10:46.932Z,101163.19
2019-05-22T08:13:15.524Z,101172.58
2019-05-22T08:15:47.657Z,101180.48
2019-05-22T08:18:15.305Z,101173.83
2019-05-22T08:20:43.722Z,101189.00
2019-05-22T08:23:12.626Z,101184.59
2019-05-22T08:25:41.113Z,101186.27
2019-05-22T08:28:09.690Z,101185.11
2019-05-22T08:30:38.271Z,101184.28
2019-05-22T08:33:09.837Z,101185.86
2019-05-22T08:35:38.240Z,101183.44
2019-05-22T08:38:08.223Z,101180.30
2019-05-22T08:40:38.706Z,101195.70
2019-05-22T08:43:07.404Z,101189.29
2019-05-22T08:45:36.740Z,101195.48
2019-05-22T08:48:07.407Z,101203.63
2019-05-22T08:50:37.633Z,101205.19
2019-05-22T08:53:07.207Z,101206.73
2019-05-22T08:55:37.518Z,101208.02
2019-05-22T08:58:06.309Z,101198.03
2019-05-22T09:00:35.491Z,101214.33
2019-05-22T09:03:06.040Z,101214.02
2019-05-22T09:05:34.528Z,101229.26
2019-05-22T09:08:03.475Z,101223.25
2019-05-22T09:10:33.425Z,101231.20
2019-05-22T09:13:01.860Z,101233.49
2019-05-22T09:15:30.366Z,101230.41
2019-05-22T09:17:58.955Z,101231.78
2019-05-22T09:20:27.396Z,101230.41
2019-05-22T09:22:56.342Z,101232.70
2019-05-22T09:25:25.219Z,101235.66
2019-05-22T09:27:53.637Z,101235.84
2019-05-22T09:30:22.683Z,101246.78
2019-05-22T09:32:51.190Z,101235.21
2019-05-22T09:35:19.735Z,101244.13
2019-05-22T09:37:48.143Z,101241.13
2019-05-22T09:40:16.583Z,101243.95
2019-05-22T09:42:45.337Z,101253.36
2019-05-22T09:45:13.913Z,101264.13
2019-05-22T09:47:42.409Z,101259.50
2019-05-22T09:50:12.453Z,101264.74
2019-05-22T09:52:56.160Z,101269.56
2019-05-22T09:55:13.205Z,101272.24
2019-05-22T09:57:41.696Z,101270.22
2019-05-22T10:00:11.948Z,101273.48
2019-05-22T10:02:40.806Z,101273.52
2019-05-22T10:05:11.116Z,101269.94
2019-05-22T10:07:57.134Z,101275.05
2019-05-22T10:10:11.598Z,101286.88
2019-05-22T10:12:40.009Z,101275.02
2019-05-22T10:15:11.937Z,101293.38
2019-05-22T10:17:43.620Z,101288.90
2019-05-22T10:20:13.389Z,101291.56
2019-05-22T10:22:43.242Z,101294.42
2019-05-22T10:25:16.174Z,101294.42
2019-05-22T10:27:42.442Z,101290.09
2019-05-22T10:30:16.694Z,101306.58
2019-05-22T10:32:45.183Z,101307.52
2019-05-22T10:35:14.848Z,101312.50
2019-05-22T10:37:43.338Z,101311.76
2019-05-22T10:40:13.362Z,101300.56
2019-05-22T10:42:44.845Z,101307.50
2019-05-22T10:45:14.220Z,101310.77
2019-05-22T10:47:43.978Z,101317.81
2019-05-22T10:50:13.733Z,101317.08
2019-05-22T10:52:42.348Z,101318.71
2019-05-22T10:55:13.296Z,101319.50
2019-05-22T10:57:42.832Z,101328.60
2019-05-22T11:00:13.137Z,101328.66
2019-05-22T11:02:41.933Z,101327.59
2019-05-22T11:05:11.046Z,101338.37
2019-05-22T11:07:39.659Z,101305.89
2019-05-22T11:10:08.681Z,101326.73
2019-05-22T11:12:37.125Z,101330.30
2019-05-22T11:15:07.551Z,101336.31
2019-05-22T11:17:36.130Z,101333.17
2019-05-22T11:20:09.847Z,101351.20
2019-05-22T11:22:38.459Z,101341.44
2019-05-22T11:25:08.878Z,101326.34
2019-05-22T11:27:37.528Z,101338.34
2019-05-22T11:30:07.478Z,101342.95
2019-05-22T11:32:36.157Z,101347.14
2019-05-22T11:35:07.492Z,101333.01
2019-05-22T11:37:37.134Z,101352.17
2019-05-22T11:40:07.551Z,101337.29
2019-05-22T11:42:36.631Z,101345.45
2019-05-22T11:45:08.730Z,101343.78
2019-05-22T11:47:37.606Z,101349.22
2019-05-22T11:50:07.620Z,101348.95
2019-05-22T11:52:36.427Z,101347.75
2019-05-22T11:55:06.746Z,101348.64
2019-05-22T11:57:37.773Z,101351.03
2019-05-22T12:00:09.409Z,101361.67
2019-05-22T12:02:39.113Z,101363.36
2019-05-22T12:05:10.567Z,101360.56
2019-05-22T12:07:43.565Z,101360.61
2019-05-22T12:10:14.451Z,101372.28
2019-05-22T12:12:44.635Z,101364.14
2019-05-22T12:15:15.125Z,101370.79
2019-05-22T12:17:45.138Z,101368.32
2019-05-22T12:20:14.647Z,101365.41
2019-05-22T12:22:43.538Z,101371.24
2019-05-22T12:25:13.763Z,101364.31
2019-05-22T12:27:42.576Z,101372.94
2019-05-22T12:30:11.927Z,101368.56
2019-05-22T12:32:40.875Z,101374.64
2019-05-22T12:35:10.339Z,101380.69
2019-05-22T12:37:38.776Z,101376.70
2019-05-22T12:40:10.594Z,101385.02
2019-05-22T12:42:39.117Z,101385.11
2019-05-22T12:45:09.333Z,101378.52
2019-05-22T12:47:38.413Z,101390.70
2019-05-22T12:50:09.132Z,101387.84
2019-05-22T12:52:38.907Z,101387.83
2019-05-22T12:55:07.523Z,101393.09
2019-05-22T12:57:36.301Z,101385.72
2019-05-22T13:00:07.653Z,101384.32
2019-05-22T13:02:37.569Z,101385.16
2019-05-22T13:05:14.242Z,101363.55
2019-05-22T13:07:40.629Z,101360.41
2019-05-22T13:10:11.076Z,101369.42
2019-05-22T13:12:39.959Z,101361.45
2019-05-22T13:15:10.824Z,101349.33
2019-05-22T13:17:40.962Z,101360.97
2019-05-22T13:20:10.323Z,101357.50
2019-05-22T13:22:43.685Z,101364.75
2019-05-22T13:25:12.660Z,101368.03
2019-05-22T13:27:41.677Z,101366.55
2019-05-22T13:30:12.133Z,101365.70
2019-05-22T13:32:43.449Z,101366.16
2019-05-22T13:35:12.926Z,101366.58
2019-05-22T13:37:41.612Z,101366.42
2019-05-22T13:40:26.545Z,101362.30
2019-05-22T13:42:41.851Z,101363.05
2019-05-22T13:45:27.945Z,101363.70
2019-05-22T13:47:43.882Z,101367.55
2019-05-22T13:50:13.258Z,101366.75
2019-05-22T13:52:41.841Z,101360.46
2019-05-22T13:55:10.598Z,101366.53
2019-05-22T13:57:41.051Z,101352.98
2019-05-22T14:00:10.834Z,101381.61
2019-05-22T14:02:39.315Z,101385.02
2019-05-22T14:05:08.181Z,101388.16
2019-05-22T14:07:36.687Z,101388.94
2019-05-22T14:10:08.924Z,101370.30
2019-05-22T14:12:37.406Z,101383.23
2019-05-22T14:15:07.736Z,101381.98
2019-05-22T14:17:36.586Z,101393.40
2019-05-22T14:20:06.467Z,101396.01
2019-05-22T14:22:34.931Z,101405.72
2019-05-22T14:25:04.815Z,101399.44
2019-05-22T14:27:33.296Z,101406.40
2019-05-22T14:30:02.353Z,101405.48
2019-05-22T14:32:31.202Z,101401.09
2019-05-22T14:34:59.691Z,101400.39
2019-05-22T14:37:28.916Z,101397.02
2019-05-22T14:39:57.418Z,101395.94
2019-05-22T14:42:27.268Z,101405.32
2019-05-22T14:44:55.776Z,101388.55
2019-05-22T14:47:24.328Z,101403.55
2019-05-22T14:49:52.767Z,101405.23
2019-05-22T14:52:21.200Z,101411.23
2019-05-22T14:54:50.085Z,101413.78
2019-05-22T14:57:18.503Z,101426.50
2019-05-22T14:59:47.357Z,101426.00
2019-05-22T15:02:16.271Z,101421.11
2019-05-22T15:04:44.684Z,101420.05
2019-05-22T15:07:13.508Z,101438.98
2019-05-22T15:09:42.279Z,101431.50
2019-05-22T15:12:10.715Z,101426.31
2019-05-22T15:14:39.122Z,101437.30
2019-05-22T15:17:08.308Z,101432.66
2019-05-22T15:19:36.955Z,101436.27
2019-05-22T15:22:07.534Z,101429.17
2019-05-22T15:24:36.011Z,101435.11
2019-05-22T15:27:05.735Z,101443.47
2019-05-22T15:29:34.239Z,101433.43
2019-05-22T15:32:03.611Z,101438.68
2019-05-22T15:34:33.093Z,101424.86
2019-05-22T15:37:02.818Z,101436.16
2019-05-22T15:39:33.085Z,101440.81
2019-05-22T15:42:02.175Z,101436.47
2019-05-22T15:44:31.679Z,101430.87
2019-05-22T15:47:00.118Z,101441.02
2019-05-22T15:49:28.965Z,101425.39
2019-05-22T15:51:58.780Z,101434.36
2019-05-22T15:54:29.397Z,101437.84
2019-05-22T15:56:58.274Z,101445.31
2019-05-22T15:59:28.966Z,101439.55
2019-05-22T16:01:58.148Z,101434.36
2019-05-22T16:04:27.392Z,101444.83
2019-05-22T16:06:56.965Z,101443.20
2019-05-22T16:09:26.046Z,101438.60
2019-05-22T16:11:55.523Z,101453.25
2019-05-22T16:14:25.354Z,101442.80
2019-05-22T16:16:54.206Z,101446.08
2019-05-22T16:19:25.098Z,101445.46
2019-05-22T16:21:55.889Z,101452.97
2019-05-22T16:24:24.327Z,101449.36
2019-05-22T16:26:53.103Z,101443.46
2019-05-22T16:29:22.024Z,101430.09
2019-05-22T16:31:51.927Z,101448.29
2019-05-22T16:34:20.443Z,101445.08
2019-05-22T16:36:48.942Z,101449.66
2019-05-22T16:39:17.820Z,101449.25
2019-05-22T16:41:47.422Z,101449.44
2019-05-22T16:44:15.918Z,101445.02
2019-05-22T16:46:44.971Z,101444.58
2019-05-22T16:49:13.863Z,101453.73
2019-05-22T16:51:43.145Z,101444.10
2019-05-22T16:54:12.141Z,101453.89
2019-05-22T16:56:41.427Z,101449.11
2019-05-22T16:59:12.009Z,101455.07
2019-05-22T17:01:57.656Z,101449.54
2019-05-22T17:04:12.063Z,101447.23
2019-05-22T17:06:42.670Z,101442.03
2019-05-22T17:09:12.815Z,101444.17
2019-05-22T17:11:42.172Z,101451.20
2019-05-22T17:14:13.684Z,101446.27
2019-05-22T17:16:43.235Z,101450.09
2019-05-22T17:19:25.744Z,101440.16
2019-05-22T17:21:42.212Z,101450.02
2019-05-22T17:24:12.524Z,101449.30
2019-05-22T17:26:41.467Z,101454.92
2019-05-22T17:29:11.235Z,101453.02
2019-05-22T17:31:40.368Z,101449.71
2019-05-22T17:34:10.610Z,101456.67
2019-05-22T17:36:39.891Z,101458.50
2019-05-22T17:39:09.760Z,101446.33
2019-05-22T17:41:40.225Z,101449.30
2019-05-22T17:44:09.335Z,101457.34
2019-05-22T17:46:38.783Z,101450.95
2019-05-22T17:49:07.296Z,101451.45
2019-05-22T17:51:35.970Z,101450.36
2019-05-22T17:54:04.536Z,101449.16
2019-05-22T17:56:32.934Z,101449.59
2019-05-22T17:59:01.511Z,101456.78
2019-05-22T18:01:30.291Z,101452.58
2019-05-22T18:03:58.987Z,101451.20
2019-05-22T18:06:27.568Z,101457.95
2019-05-22T18:08:56.067Z,101461.65
2019-05-22T18:11:24.609Z,101466.56
2019-05-22T18:13:56.420Z,101470.45
2019-05-22T18:16:25.063Z,101469.11
2019-05-22T18:18:53.513Z,101472.46
2019-05-22T18:21:21.963Z,101476.40
2019-05-22T18:23:50.461Z,101476.19
2019-05-22T18:26:18.958Z,101471.66
2019-05-22T18:28:47.368Z,101483.16
2019-05-22T18:31:16.009Z,101479.73
2019-05-22T18:33:44.437Z,101486.56
2019-05-22T18:36:12.920Z,101493.52
2019-05-22T18:38:41.355Z,101491.55
2019-05-22T18:41:09.828Z,101499.43
2019-05-22T18:43:38.288Z,101500.81
2019-05-22T18:46:06.770Z,101503.23
2019-05-22T18:48:35.313Z,101504.61
2019-05-22T18:51:04.221Z,101499.96
2019-05-22T18:53:32.694Z,101510.52
2019-05-22T18:56:01.298Z,101515.80
2019-05-22T18:58:29.778Z,101516.42
2019-05-22T19:00:58.285Z,101525.33
2019-05-22T19:03:26.828Z,101522.29
2019-05-22T19:05:55.263Z,101525.95
2019-05-22T19:08:23.949Z,101528.87
2019-05-22T19:10:52.475Z,101531.84
2019-05-22T19:13:20.957Z,101535.94
2019-05-22T19:15:49.830Z,101540.89
2019-05-22T19:18:18.373Z,101544.04
2019-05-22T19:20:46.806Z,101544.36
2019-05-22T19:23:15.596Z,101544.44
2019-05-22T19:25:44.025Z,101548.25
2019-05-22T19:28:12.502Z,101560.00
2019-05-22T19:30:40.998Z,101558.53
2019-05-22T19:33:09.975Z,101559.79
2019-05-22T19:35:38.410Z,101559.53
2019-05-22T19:38:07.184Z,101566.24
2019-05-22T19:40:36.050Z,101571.76
2019-05-22T19:43:04.964Z,101574.89
2019-05-22T19:45:33.542Z,101578.22
2019-05-22T19:48:02.591Z,101581.88
2019-05-22T19:50:31.392Z,101584.96
2019-05-22T19:53:17.730Z,101591.82
2019-05-22T19:55:32.645Z,101591.30
2019-05-22T19:58:01.591Z,101593.87
2019-05-22T20:00:30.961Z,101595.98
2019-05-22T20:02:59.432Z,101597.73
2019-05-22T20:05:28.757Z,101601.53
2019-05-22T20:07:57.229Z,101601.27
2019-05-22T20:10:26.006Z,101603.34
2019-05-22T20:12:54.714Z,101595.53
2019-05-22T20:15:24.958Z,101600.66
2019-05-22T20:17:53.626Z,101603.91
2019-05-22T20:20:23.236Z,101603.06
2019-05-22T20:22:53.081Z,101609.20
2019-05-22T20:25:22.936Z,101608.73
2019-05-22T20:27:51.487Z,101613.69
2019-05-22T20:30:21.892Z,101610.47
2019-05-22T20:32:50.321Z,101614.75
2019-05-22T20:35:18.993Z,101615.75
2019-05-22T20:37:47.792Z,101622.05
2019-05-22T20:40:19.409Z,101622.75
2019-05-22T20:42:47.911Z,101620.89
2019-05-22T20:45:19.329Z,101621.45
2019-05-22T20:47:49.386Z,101621.44
2019-05-22T20:50:18.267Z,101624.52
2019-05-22T20:52:47.472Z,101626.05
2019-05-22T20:55:16.521Z,101627.25
2019-05-22T20:57:45.089Z,101631.17
2019-05-22T21:00:16.665Z,101628.63
2019-05-22T21:02:46.638Z,101627.94
2019-05-22T21:05:16.280Z,101636.45
2019-05-22T21:07:51.569Z,101632.05
2019-05-22T21:10:24.541Z,101631.38
2019-05-22T21:12:54.546Z,101636.17
2019-05-22T21:15:23.760Z,101644.84
2019-05-22T21:17:54.147Z,101647.77
2019-05-22T21:20:26.494Z,101650.50
2019-05-22T21:22:54.926Z,101645.72
2019-05-22T21:25:25.069Z,101648.62
2019-05-22T21:27:54.040Z,101654.40
2019-05-22T21:30:24.059Z,101648.95
2019-05-22T21:32:52.549Z,101653.73
2019-05-22T21:35:23.002Z,101661.77
2019-05-22T21:37:51.669Z,101654.08
2019-05-22T21:40:21.380Z,101658.02
2019-05-22T21:42:51.416Z,101661.59
2019-05-22T21:45:20.183Z,101660.23
2019-05-22T21:47:49.078Z,101662.96
2019-05-22T21:50:17.731Z,101670.08
2019-05-22T21:52:46.196Z,101664.63
2019-05-22T21:55:16.130Z,101669.38
2019-05-22T21:57:45.652Z,101671.27
2019-05-22T22:00:24.661Z,101671.59
2019-05-22T22:02:53.402Z,101664.61
2019-05-22T22:05:22.508Z,101668.36
2019-05-22T22:07:50.976Z,101661.88
2019-05-22T22:10:20.545Z,101662.91
2019-05-22T22:12:49.321Z,101667.69
2019-05-22T22:15:18.291Z,101669.05
2019-05-22T22:17:47.478Z,101673.47
2019-05-22T22:20:18.149Z,101672.78
2019-05-22T22:22:46.624Z,101669.03
2019-05-22T22:25:15.487Z,101672.77
2019-05-22T22:27:44.431Z,101676.48
2019-05-22T22:30:31.062Z,101677.14
2019-05-22T22:33:00.822Z,101678.50
2019-05-22T22:35:29.314Z,101681.08
2019-05-22T22:37:58.092Z,101675.97
2019-05-22T22:40:27.793Z,101688.73
2019-05-22T22:42:57.364Z,101685.36
2019-05-22T22:45:43.650Z,101679.39
2019-05-22T22:48:16.032Z,101680.75
2019-05-22T22:50:45.696Z,101681.06
2019-05-22T22:53:17.116Z,101681.18
2019-05-22T22:55:45.615Z,101679.94
2019-05-22T22:58:17.475Z,101682.95
2019-05-22T23:00:46.680Z,101685.27
2019-05-22T23:03:21.985Z,101688.80
2019-05-22T23:05:50.471Z,101687.23
2019-05-22T23:08:22.049Z,101688.24
2019-05-22T23:10:51.134Z,101687.18
2019-05-22T23:13:21.367Z,101694.13
2019-05-22T23:15:50.132Z,101690.52
2019-05-22T23:18:41.389Z,101689.84
2019-05-22T23:21:09.533Z,101682.52
2019-05-22T23:23:37.857Z,101687.44
2019-05-22T23:26:07.996Z,101692.51
2019-05-22T23:28:40.672Z,101693.98
2019-05-22T23:31:09.964Z,101692.59
2019-05-22T23:33:39.144Z,101702.08
2019-05-22T23:36:08.920Z,101694.24
2019-05-22T23:38:38.564Z,101694.41
2019-05-22T23:41:08.128Z,101694.98
2019-05-22T23:43:37.006Z,101699.91
2019-05-22T23:46:07.673Z,101696.22
2019-05-22T23:48:36.077Z,101701.74
2019-05-22T23:51:06.174Z,101698.83
2019-05-22T23:53:37.711Z,101699.81
2019-05-22T23:56:06.803Z,101700.34
2019-05-22T23:58:49.816Z,101696.20
